CDT,Max TemperatureF,Mean TemperatureF,Min TemperatureF,Max Dew PointF,MeanDew PointF,Min DewpointF,Max Humidity, Mean Humidity, Min Humidity, Max Sea Level PressureIn, Mean Sea Level PressureIn, Min Sea Level PressureIn, Max VisibilityMiles, Mean VisibilityMiles, Min VisibilityMiles, Max Wind SpeedMPH, Mean Wind SpeedMPH, Max Gust SpeedMPH,PrecipitationIn, CloudCover, Events, WindDirDegrees
2012-3-1,78,60,41,58,31,19,62,37,11,29.89,29.65,29.39,10,10,10,26,14,32,0.00,0,,176
2012-3-2,67,53,39,61,39,29,87,61,35,29.96,29.68,29.37,10,10,8,25,11,32,0.00,2,,336
2012-3-3,56,44,31,32,22,11,89,53,16,30.14,30.05,29.98,10,10,10,25,9,36,0.00,1,,302
2012-3-4,71,52,33,33,26,17,59,39,18,30.17,30.04,29.97,10,10,10,26,9,35,0.00,1,,278
2012-3-5,73,56,39,36,29,20,59,41,22,30.35,30.21,30.06,10,10,10,21,11,28,0.00,0,,140
2012-3-6,71,63,55,49,43,33,56,47,37,30.05,29.95,29.86,10,10,10,38,22,49,0.00,2,,171
2012-3-7,71,67,62,58,55,49,78,67,56,29.92,29.88,29.83,10,10,10,33,20,40,0.00,7,,170
2012-3-8,65,49,33,58,37,29,89,80,70,30.53,30.25,29.91,10,8,2,29,12,39,0.36,7,Rain-Thunderstorm,2
2012-3-9,63,47,30,34,27,23,82,53,23,30.57,30.48,30.40,10,10,10,16,6,21,0.00,0,,20
2012-3-10,66,49,32,44,32,28,82,54,26,30.39,30.28,30.13,10,10,8,22,7,30,0.04,3,Rain,149
2012-3-11,55,51,47,52,47,44,100,92,83,30.12,30.00,29.83,10,6,2,17,10,23,1.01,7,Rain,161
2012-3-12,78,66,53,52,50,46,89,62,35,29.98,29.88,29.80,10,10,10,24,13,30,0.00,0,,177
2012-3-13,84,68,52,59,56,49,93,67,40,30.02,29.97,29.91,10,9,5,26,12,33,0.00,1,,161
2012-3-14,75,69,63,63,60,58,93,75,57,30.04,29.99,29.95,10,10,9,24,12,30,0.00,6,,173
2012-3-15,80,73,65,64,62,60,81,68,54,30.06,30.01,29.95,10,10,10,22,13,29,0.00,4,,170
2012-3-16,78,72,65,64,62,60,93,79,64,30.04,29.98,29.93,10,10,10,22,13,26,0.00,4,,173
2012-3-17,77,73,68,63,61,58,81,69,57,29.96,29.91,29.86,10,10,10,26,14,37,T,5,Rain,177
2012-3-18,76,72,67,61,59,58,81,68,54,29.94,29.87,29.78,10,10,10,30,16,37,0.00,4,,164
2012-3-19,70,63,56,64,58,55,100,87,73,29.80,29.73,29.68,10,5,1,32,11,41,2.81,8,Rain-Thunderstorm,112
2012-3-20,60,57,53,57,55,53,100,92,84,29.83,29.77,29.72,10,5,1,16,4,22,1.43,8,Rain-Thunderstorm,138
2012-3-21,60,53,45,55,52,45,100,85,69,29.84,29.80,29.72,10,8,3,24,5,37,0.50,7,Rain-Thunderstorm,133
2012-3-22,57,51,45,49,46,44,100,83,66,29.88,29.83,29.78,10,9,5,21,9,28,0.09,6,Rain,151
2012-3-23,65,55,45,49,46,44,93,73,52,29.99,29.94,29.89,10,10,8,17,7,22,T,4,,271
2012-3-24,76,60,43,50,46,42,93,65,36,30.05,30.00,29.96,10,10,9,14,1,17,0.00,0,,310
2012-3-25,81,65,48,52,49,46,93,63,33,30.10,30.03,29.98,10,10,10,10,3,14,0.00,0,,128
2012-3-26,82,67,51,57,53,49,83,60,36,30.06,29.98,29.92,10,10,8,20,7,24,0.00,0,,147
2012-3-27,83,72,61,59,55,53,84,61,37,29.99,29.94,29.89,10,10,10,28,13,35,0.00,1,,175
2012-3-28,83,71,59,62,58,55,84,65,45,29.98,29.92,29.84,10,10,10,23,12,30,0.00,1,,166
2012-3-29,81,69,57,61,58,54,90,68,45,29.88,29.82,29.74,10,10,8,22,11,28,0.00,0,,163
2012-3-30,84,73,61,62,60,56,93,68,43,29.84,29.77,29.69,10,10,6,21,8,25,0.00,1,,181
2012-3-31,85,73,60,67,62,58,90,67,44,29.84,29.78,29.72,10,9,6,15,6,18,0.00,1,,165